Time;durP1;ratioP1;P1;durP2;ratioP2;P2;SDS_P1;SDS_P2;PMS_P1;PMS_P2;Temp;Humidity;BMP_temperature;BMP_pressure;BME280_temperature;BME280_humidity;BME280_pressure;Samples;Min_cycle;Max_cycle;Signal;HPM_P1;HPM_P2
2021/08/16 00:01:00;;;;;;;9.38;3.30;;;;;;;;;;5034930;28;20484;-73
2021/08/16 00:03:26;;;;;;;6.10;2.75;;;;;;;;;;5052723;28;20431;-73
2021/08/16 00:05:52;;;;;;;4.97;3.03;;;;;;;;;;5052673;28;20056;-74
2021/08/16 00:08:18;;;;;;;6.70;3.15;;;;;;;;;;5053156;28;20025;-74
2021/08/16 00:10:44;;;;;;;6.25;3.20;;;;;;;;;;5052496;28;20352;-74
2021/08/16 00:13:10;;;;;;;6.82;2.60;;;;;;;;;;5034941;28;20028;-74
2021/08/16 00:15:36;;;;;;;8.10;3.20;;;;;;;;;;5052756;28;20025;-74
2021/08/16 00:18:03;;;;;;;6.95;2.85;;;;;;;;;;5052807;28;20422;-75
2021/08/16 00:20:30;;;;;;;5.88;2.83;;;;;;;;;;5052997;28;20032;-74
2021/08/16 00:22:56;;;;;;;7.03;3.10;;;;;;;;;;5052545;28;20535;-74
2021/08/16 00:25:23;;;;;;;7.38;3.58;;;;;;;;;;5034940;28;20546;-73
2021/08/16 00:27:49;;;;;;;6.20;3.40;;;;;;;;;;5052355;28;20132;-74
2021/08/16 00:30:15;;;;;;;6.50;3.00;;;;;;;;;;5034381;28;20029;-74
2021/08/16 00:32:41;;;;;;;5.78;3.08;;;;;;;;;;5052233;28;20080;-75
2021/08/16 00:35:08;;;;;;;6.25;3.10;;;;;;;;;;5052341;28;20472;-74
2021/08/16 00:37:34;;;;;;;6.32;3.00;;;;;;;;;;5034491;28;20421;-75
2021/08/16 00:40:00;;;;;;;6.38;2.70;;;;;;;;;;5034294;28;20024;-73
2021/08/16 00:42:26;;;;;;;6.78;3.08;;;;;;;;;;5034524;28;20495;-74
2021/08/16 00:44:52;;;;;;;6.47;2.80;;;;;;;;;;5052461;28;20112;-74
2021/08/16 00:47:19;;;;;;;5.63;2.83;;;;;;;;;;5052189;28;20029;-74
2021/08/16 00:49:45;;;;;;;8.32;3.22;;;;;;;;;;5052325;28;20376;-74
2021/08/16 00:52:11;;;;;;;6.10;3.03;;;;;;;;;;5048398;28;20404;-76
2021/08/16 00:54:38;;;;;;;6.45;2.67;;;;;;;;;;5041294;28;20485;-74
2021/08/16 00:57:05;;;;;;;7.85;2.97;;;;;;;;;;5034225;28;20021;-75
2021/08/16 00:59:32;;;;;;;5.88;2.90;;;;;;;;;;5052100;28;20506;-74
2021/08/16 01:01:58;;;;;;;4.88;2.60;;;;;;;;;;5034560;28;20383;-73
2021/08/16 01:04:28;;;;;;;6.50;2.83;;;;;;;;;;5034225;28;20051;-74
2021/08/16 01:06:54;;;;;;;5.30;3.00;;;;;;;;;;5053700;28;20025;-74
2021/08/16 01:09:20;;;;;;;7.80;2.65;;;;;;;;;;5056318;28;20031;-75
2021/08/16 01:11:47;;;;;;;4.95;2.50;;;;;;;;;;5038148;28;20029;-74
2021/08/16 01:14:14;;;;;;;5.70;2.85;;;;;;;;;;5038084;28;20017;-73
2021/08/16 01:16:40;;;;;;;7.43;3.20;;;;;;;;;;5056115;28;20642;-75
2021/08/16 01:19:06;;;;;;;5.18;2.70;;;;;;;;;;5056337;28;20491;-75
2021/08/16 01:21:32;;;;;;;7.15;3.17;;;;;;;;;;5056144;28;20100;-75
2021/08/16 01:23:58;;;;;;;6.20;3.10;;;;;;;;;;5055959;28;20044;-74
2021/08/16 01:26:25;;;;;;;6.95;2.85;;;;;;;;;;5037962;28;20032;-75
2021/08/16 01:28:51;;;;;;;6.95;2.90;;;;;;;;;;5037855;28;20036;-74
2021/08/16 01:31:17;;;;;;;6.35;3.03;;;;;;;;;;5055554;28;20065;-74
2021/08/16 01:33:44;;;;;;;8.45;3.00;;;;;;;;;;5037546;28;20051;-73
2021/08/16 01:36:10;;;;;;;6.63;3.20;;;;;;;;;;5055702;28;20021;-74
2021/08/16 01:38:40;;;;;;;7.00;2.85;;;;;;;;;;5055796;28;20029;-74
2021/08/16 01:41:07;;;;;;;7.68;3.03;;;;;;;;;;5055638;28;20029;-73
2021/08/16 01:43:33;;;;;;;6.90;2.60;;;;;;;;;;5037382;28;20025;-74
2021/08/16 01:45:59;;;;;;;6.18;2.88;;;;;;;;;;5037465;28;20522;-73
2021/08/16 01:48:26;;;;;;;6.13;3.22;;;;;;;;;;5037410;28;20079;-74
2021/08/16 01:50:52;;;;;;;7.80;3.10;;;;;;;;;;5037334;28;20511;-74
2021/08/16 01:53:18;;;;;;;7.35;3.10;;;;;;;;;;5055159;28;20045;-74
2021/08/16 01:55:44;;;;;;;6.63;3.00;;;;;;;;;;5037431;28;20032;-75
2021/08/16 01:58:10;;;;;;;5.65;3.20;;;;;;;;;;5037312;28;20460;-74
2021/08/16 02:00:37;;;;;;;5.30;2.90;;;;;;;;;;5055223;28;20025;-74
2021/08/16 02:03:03;;;;;;;7.38;3.38;;;;;;;;;;5055120;28;20025;-74
2021/08/16 02:05:29;;;;;;;7.05;3.30;;;;;;;;;;5055193;28;20025;-73
2021/08/16 02:07:57;;;;;;;4.65;2.88;;;;;;;;;;5054961;28;20074;-74
2021/08/16 02:10:24;;;;;;;7.82;3.30;;;;;;;;;;5037013;28;20071;-74
2021/08/16 02:12:50;;;;;;;6.80;2.88;;;;;;;;;;5055067;28;20021;-74
2021/08/16 02:15:16;;;;;;;5.20;2.88;;;;;;;;;;5037241;28;20021;-75
2021/08/16 02:17:42;;;;;;;6.85;3.00;;;;;;;;;;5054741;28;20025;-74
2021/08/16 02:20:09;;;;;;;8.10;3.15;;;;;;;;;;5054498;28;20025;-74
2021/08/16 02:22:35;;;;;;;6.18;3.10;;;;;;;;;;5036799;28;20443;-73
2021/08/16 02:25:01;;;;;;;7.05;3.40;;;;;;;;;;5054736;28;20017;-74
2021/08/16 02:27:28;;;;;;;6.65;3.03;;;;;;;;;;5054776;28;20100;-73
2021/08/16 02:29:54;;;;;;;6.78;3.40;;;;;;;;;;5054654;28;20104;-74
2021/08/16 02:32:20;;;;;;;6.15;2.78;;;;;;;;;;5036583;28;20079;-75
2021/08/16 02:34:46;;;;;;;8.68;3.47;;;;;;;;;;5036762;28;20087;-74
2021/08/16 02:37:12;;;;;;;5.47;3.08;;;;;;;;;;5054305;28;20051;-74
2021/08/16 02:39:38;;;;;;;5.35;3.00;;;;;;;;;;5036208;28;20086;-73
2021/08/16 02:42:04;;;;;;;9.27;3.28;;;;;;;;;;5054476;28;20044;-73
2021/08/16 02:44:30;;;;;;;4.72;2.67;;;;;;;;;;5036596;28;20124;-73
2021/08/16 02:46:58;;;;;;;6.10;3.20;;;;;;;;;;5054256;28;20430;-73
2021/08/16 02:49:24;;;;;;;7.20;3.35;;;;;;;;;;5054416;28;20017;-73
2021/08/16 02:51:50;;;;;;;7.75;2.88;;;;;;;;;;5054163;28;20680;-74
2021/08/16 02:54:16;;;;;;;6.90;2.75;;;;;;;;;;5031407;28;20277;-73
2021/08/16 02:56:42;;;;;;;7.22;3.03;;;;;;;;;;5051917;28;20033;-74
2021/08/16 02:59:08;;;;;;;8.00;2.80;;;;;;;;;;5036179;28;20075;-74
2021/08/16 03:01:34;;;;;;;7.53;2.92;;;;;;;;;;5036154;28;20546;-74
2021/08/16 03:04:00;;;;;;;7.57;2.90;;;;;;;;;;5036318;28;20368;-74
2021/08/16 03:06:28;;;;;;;5.80;3.20;;;;;;;;;;5053848;28;20032;-74
2021/08/16 03:08:56;;;;;;;4.90;2.70;;;;;;;;;;5053924;28;20020;-73
2021/08/16 03:11:22;;;;;;;5.90;3.20;;;;;;;;;;5053913;28;20025;-74
2021/08/16 03:13:48;;;;;;;6.85;3.50;;;;;;;;;;5053819;28;20017;-73
2021/08/16 03:16:14;;;;;;;5.43;2.90;;;;;;;;;;5053721;28;20036;-73
2021/08/16 03:18:40;;;;;;;5.93;2.90;;;;;;;;;;5053843;28;20017;-75
2021/08/16 03:21:06;;;;;;;5.20;2.80;;;;;;;;;;5054013;28;20495;-74
2021/08/16 03:23:32;;;;;;;5.93;2.70;;;;;;;;;;5053833;28;20036;-73
2021/08/16 03:25:58;;;;;;;8.13;3.10;;;;;;;;;;5051023;28;20087;-73
2021/08/16 03:28:26;;;;;;;7.10;2.78;;;;;;;;;;5049289;28;20480;-75
2021/08/16 03:30:52;;;;;;;6.70;2.78;;;;;;;;;;5053234;28;20044;-74
2021/08/16 03:33:18;;;;;;;6.95;3.17;;;;;;;;;;5053621;28;20025;-73
2021/08/16 03:35:44;;;;;;;5.90;2.88;;;;;;;;;;5053567;28;20104;-73
2021/08/16 03:38:10;;;;;;;7.28;2.70;;;;;;;;;;5035574;28;20017;-73
2021/08/16 03:40:36;;;;;;;4.93;2.80;;;;;;;;;;5035666;28;20036;-74
2021/08/16 03:43:03;;;;;;;5.45;2.80;;;;;;;;;;5053114;28;20059;-74
2021/08/16 03:45:29;;;;;;;8.73;3.25;;;;;;;;;;5035330;28;20060;-74
2021/08/16 03:47:55;;;;;;;6.30;2.75;;;;;;;;;;5053416;28;20029;-74
2021/08/16 03:50:21;;;;;;;5.57;3.10;;;;;;;;;;5035099;28;20492;-74
2021/08/16 03:52:47;;;;;;;7.28;3.10;;;;;;;;;;5052589;28;20113;-73
2021/08/16 03:55:13;;;;;;;6.20;2.88;;;;;;;;;;5053004;28;20033;-74
2021/08/16 03:57:39;;;;;;;6.05;2.45;;;;;;;;;;5035125;28;20082;-73
2021/08/16 04:00:10;;;;;;;7.40;2.75;;;;;;;;;;5052949;28;20380;-73
2021/08/16 04:02:39;;;;;;;5.70;2.67;;;;;;;;;;5053055;28;20028;-73
2021/08/16 04:05:06;;;;;;;4.63;2.80;;;;;;;;;;5052920;28;20530;-74
2021/08/16 04:07:32;;;;;;;6.72;2.58;;;;;;;;;;5052600;28;20028;-73
2021/08/16 04:09:58;;;;;;;6.03;2.58;;;;;;;;;;5034658;28;20040;-73
2021/08/16 04:12:24;;;;;;;5.10;2.75;;;;;;;;;;5052573;28;20025;-73
2021/08/16 04:14:50;;;;;;;6.15;2.53;;;;;;;;;;5033991;28;20060;-75
2021/08/16 04:17:16;;;;;;;6.95;2.85;;;;;;;;;;5046228;28;20086;-74
2021/08/16 04:19:42;;;;;;;5.05;2.45;;;;;;;;;;5034589;28;20037;-74
2021/08/16 04:22:08;;;;;;;9.27;2.70;;;;;;;;;;5052591;28;20020;-73
2021/08/16 04:24:34;;;;;;;6.07;3.00;;;;;;;;;;5034663;28;20383;-73
2021/08/16 04:27:00;;;;;;;6.05;2.92;;;;;;;;;;5034660;28;20426;-74
2021/08/16 04:29:26;;;;;;;7.28;2.80;;;;;;;;;;5034669;28;20029;-73
2021/08/16 04:31:53;;;;;;;5.93;2.90;;;;;;;;;;5052418;28;20028;-74
2021/08/16 04:34:19;;;;;;;7.70;2.75;;;;;;;;;;5052548;28;20029;-73
2021/08/16 04:36:45;;;;;;;6.68;2.90;;;;;;;;;;5034429;28;20053;-74
2021/08/16 04:39:11;;;;;;;8.45;3.05;;;;;;;;;;5052091;28;20052;-73
2021/08/16 04:41:37;;;;;;;5.82;2.67;;;;;;;;;;5051732;28;20021;-74
2021/08/16 04:44:03;;;;;;;8.60;2.97;;;;;;;;;;5034572;28;20665;-74
2021/08/16 04:46:29;;;;;;;4.93;2.80;;;;;;;;;;5034431;28;20464;-74
2021/08/16 04:48:55;;;;;;;7.30;3.00;;;;;;;;;;5052383;28;20480;-73
2021/08/16 04:51:21;;;;;;;6.72;2.72;;;;;;;;;;5034279;28;20028;-73
2021/08/16 04:53:47;;;;;;;6.07;2.75;;;;;;;;;;5051950;28;20120;-74
2021/08/16 04:56:13;;;;;;;4.95;2.35;;;;;;;;;;5034074;28;20494;-74
2021/08/16 04:58:39;;;;;;;7.65;3.00;;;;;;;;;;5033984;28;20494;-74
2021/08/16 05:01:05;;;;;;;8.05;2.88;;;;;;;;;;5034038;28;20464;-74
2021/08/16 05:03:31;;;;;;;9.05;3.15;;;;;;;;;;5052038;28;20017;-73
2021/08/16 05:06:05;;;;;;;6.95;3.00;;;;;;;;;;5051854;28;20100;-73
2021/08/16 05:08:31;;;;;;;11.70;3.15;;;;;;;;;;5051683;28;20017;-73
2021/08/16 05:10:57;;;;;;;5.85;2.67;;;;;;;;;;5049618;28;20395;-73
2021/08/16 05:13:23;;;;;;;6.93;3.05;;;;;;;;;;5048259;28;20439;-73
2021/08/16 05:15:50;;;;;;;7.68;3.22;;;;;;;;;;5051876;28;20476;-74
2021/08/16 05:18:16;;;;;;;8.35;3.17;;;;;;;;;;5051897;28;20105;-73
2021/08/16 05:20:42;;;;;;;5.57;3.20;;;;;;;;;;5051624;28;20049;-73
2021/08/16 05:23:08;;;;;;;6.20;2.80;;;;;;;;;;5051849;28;20017;-74
2021/08/16 05:25:34;;;;;;;7.03;3.28;;;;;;;;;;5051713;28;20033;-74
2021/08/16 05:28:00;;;;;;;6.03;3.38;;;;;;;;;;5033578;28;20088;-73
2021/08/16 05:30:26;;;;;;;8.82;3.25;;;;;;;;;;5051584;28;20067;-73
2021/08/16 05:32:52;;;;;;;7.72;2.95;;;;;;;;;;5051510;28;20090;-73
2021/08/16 05:35:18;;;;;;;6.63;3.15;;;;;;;;;;5033700;28;20029;-73
2021/08/16 05:37:44;;;;;;;8.85;2.85;;;;;;;;;;5033874;28;20108;-74
2021/08/16 05:40:11;;;;;;;8.25;3.33;;;;;;;;;;5033899;28;20031;-74
2021/08/16 05:42:37;;;;;;;8.10;3.58;;;;;;;;;;5051506;28;20017;-75
2021/08/16 05:45:04;;;;;;;9.20;3.40;;;;;;;;;;5033783;28;20186;-74
2021/08/16 05:47:30;;;;;;;9.27;3.30;;;;;;;;;;5051263;28;20032;-74
2021/08/16 05:49:57;;;;;;;8.90;3.55;;;;;;;;;;5033227;28;20043;-72
2021/08/16 05:52:23;;;;;;;8.82;3.47;;;;;;;;;;5052090;28;20040;-75
2021/08/16 05:54:49;;;;;;;6.28;3.15;;;;;;;;;;5055368;28;20407;-74
2021/08/16 05:57:15;;;;;;;7.25;3.50;;;;;;;;;;5055233;28;20361;-74
2021/08/16 05:59:41;;;;;;;8.63;3.53;;;;;;;;;;5037371;28;20036;-73
2021/08/16 06:02:08;;;;;;;5.80;3.22;;;;;;;;;;5037280;28;20025;-73
2021/08/16 06:04:34;;;;;;;10.98;4.05;;;;;;;;;;5055135;28;20380;-73
2021/08/16 06:07:00;;;;;;;9.20;3.65;;;;;;;;;;5055177;28;20025;-73
2021/08/16 06:09:26;;;;;;;8.27;3.78;;;;;;;;;;5055156;28;20032;-73
2021/08/16 06:11:52;;;;;;;6.18;3.63;;;;;;;;;;5037169;28;20041;-73
2021/08/16 06:14:18;;;;;;;7.05;3.67;;;;;;;;;;5055020;28;20024;-73
2021/08/16 06:16:44;;;;;;;8.43;3.45;;;;;;;;;;5054903;28;20082;-73
2021/08/16 06:19:10;;;;;;;9.82;4.03;;;;;;;;;;5055107;28;20496;-72
2021/08/16 06:21:42;;;;;;;7.53;3.72;;;;;;;;;;5036787;28;20502;-74
2021/08/16 06:24:08;;;;;;;8.20;4.00;;;;;;;;;;5054713;28;20032;-74
2021/08/16 06:26:34;;;;;;;7.80;3.42;;;;;;;;;;5036913;28;20036;-76
2021/08/16 06:29:00;;;;;;;11.15;4.43;;;;;;;;;;5036759;28;20017;-74
2021/08/16 06:31:26;;;;;;;8.07;3.80;;;;;;;;;;5048450;28;20115;-76
2021/08/16 06:33:52;;;;;;;7.50;4.15;;;;;;;;;;5068931;28;20021;-75
2021/08/16 06:36:19;;;;;;;10.60;4.00;;;;;;;;;;5074173;28;20036;-76
2021/08/16 06:38:47;;;;;;;8.98;4.45;;;;;;;;;;5056170;28;20025;-75
2021/08/16 06:41:15;;;;;;;9.38;4.15;;;;;;;;;;5074089;28;20031;-74
2021/08/16 06:43:41;;;;;;;9.68;3.63;;;;;;;;;;5056097;28;20514;-74
2021/08/16 06:46:07;;;;;;;7.97;3.55;;;;;;;;;;5056087;28;20013;-74
2021/08/16 06:48:33;;;;;;;7.68;3.80;;;;;;;;;;5073927;28;20031;-74
2021/08/16 06:51:00;;;;;;;7.03;3.83;;;;;;;;;;5073868;28;20037;-74
2021/08/16 06:53:26;;;;;;;7.32;3.78;;;;;;;;;;5055584;28;20040;-74
2021/08/16 06:55:53;;;;;;;8.13;3.97;;;;;;;;;;5073848;28;20025;-74
2021/08/16 06:58:19;;;;;;;10.50;3.72;;;;;;;;;;5073796;28;20156;-76
2021/08/16 07:00:46;;;;;;;9.60;4.32;;;;;;;;;;5073871;28;20029;-76
2021/08/16 07:03:12;;;;;;;7.72;4.25;;;;;;;;;;5055589;28;20063;-74
2021/08/16 07:05:45;;;;;;;7.00;4.00;;;;;;;;;;5055076;28;20060;-76
2021/08/16 07:08:14;;;;;;;6.10;3.45;;;;;;;;;;5055939;28;20017;-74
2021/08/16 07:10:41;;;;;;;9.02;4.00;;;;;;;;;;5055473;28;20044;-75
2021/08/16 07:13:07;;;;;;;6.68;3.47;;;;;;;;;;5055486;28;20101;-74
2021/08/16 07:15:33;;;;;;;8.60;3.50;;;;;;;;;;5055646;28;20021;-74
2021/08/16 07:17:59;;;;;;;6.88;3.42;;;;;;;;;;5055634;28;20371;-76
2021/08/16 07:20:27;;;;;;;7.65;3.33;;;;;;;;;;5055735;28;20636;-76
2021/08/16 07:22:53;;;;;;;8.55;3.63;;;;;;;;;;5073216;28;20017;-74
2021/08/16 07:25:19;;;;;;;7.00;3.30;;;;;;;;;;5073362;28;20666;-75
2021/08/16 07:27:45;;;;;;;7.40;3.60;;;;;;;;;;5072883;28;20035;-74
2021/08/16 07:30:11;;;;;;;5.47;3.30;;;;;;;;;;5053801;28;20135;-74
2021/08/16 07:32:37;;;;;;;6.80;3.28;;;;;;;;;;5047478;28;20025;-74
2021/08/16 07:35:04;;;;;;;6.78;3.60;;;;;;;;;;5035699;28;20056;-75
2021/08/16 07:37:30;;;;;;;7.78;3.55;;;;;;;;;;5053683;28;20021;-74
2021/08/16 07:39:56;;;;;;;7.45;4.10;;;;;;;;;;5053468;28;20035;-74
2021/08/16 07:42:24;;;;;;;6.65;3.60;;;;;;;;;;5053288;28;20388;-74
2021/08/16 07:44:53;;;;;;;5.90;3.20;;;;;;;;;;5035430;28;20022;-74
2021/08/16 07:47:19;;;;;;;8.63;3.70;;;;;;;;;;5053230;28;20025;-75
2021/08/16 07:49:46;;;;;;;6.78;3.58;;;;;;;;;;5053140;28;20388;-74
2021/08/16 07:52:12;;;;;;;6.72;3.50;;;;;;;;;;5035171;28;20492;-74
2021/08/16 07:54:38;;;;;;;7.72;3.95;;;;;;;;;;5053114;28;20041;-75
2021/08/16 07:57:04;;;;;;;6.65;3.15;;;;;;;;;;5035272;28;20051;-75
2021/08/16 07:59:30;;;;;;;10.20;3.47;;;;;;;;;;5053037;28;20025;-74
2021/08/16 08:01:57;;;;;;;7.75;3.63;;;;;;;;;;5034936;28;20032;-74
2021/08/16 08:04:23;;;;;;;6.90;3.33;;;;;;;;;;5053052;28;20048;-74
2021/08/16 08:06:49;;;;;;;7.72;3.95;;;;;;;;;;5052829;28;20028;-74
2021/08/16 08:09:15;;;;;;;6.45;3.65;;;;;;;;;;5034850;28;20021;-74
2021/08/16 08:11:41;;;;;;;5.78;3.33;;;;;;;;;;5035021;28;20041;-74
2021/08/16 08:14:07;;;;;;;8.10;2.70;;;;;;;;;;5052660;28;20020;-74
2021/08/16 08:16:33;;;;;;;7.88;3.53;;;;;;;;;;5033899;28;20036;-74
2021/08/16 08:18:59;;;;;;;5.55;3.20;;;;;;;;;;5052755;28;20100;-74
2021/08/16 08:21:25;;;;;;;6.95;2.90;;;;;;;;;;5052616;28;20029;-75
2021/08/16 08:23:51;;;;;;;5.60;3.17;;;;;;;;;;5052508;28;20048;-74
2021/08/16 08:26:18;;;;;;;5.32;2.95;;;;;;;;;;5034613;28;20036;-74
2021/08/16 08:28:44;;;;;;;6.13;3.13;;;;;;;;;;5052542;28;20028;-75
2021/08/16 08:31:10;;;;;;;6.53;3.78;;;;;;;;;;5034369;28;20033;-75
2021/08/16 08:33:37;;;;;;;5.88;3.08;;;;;;;;;;5034408;28;20028;-76
2021/08/16 08:36:04;;;;;;;6.35;3.33;;;;;;;;;;5052340;28;20104;-75
2021/08/16 08:38:30;;;;;;;7.07;3.00;;;;;;;;;;5034338;28;20029;-74
2021/08/16 08:41:00;;;;;;;5.57;2.85;;;;;;;;;;5052229;28;20025;-74
2021/08/16 08:43:26;;;;;;;5.85;2.70;;;;;;;;;;5052157;28;20049;-74
2021/08/16 08:45:55;;;;;;;5.20;2.70;;;;;;;;;;5034320;28;20028;-75
2021/08/16 08:48:21;;;;;;;6.78;2.78;;;;;;;;;;5052062;28;20032;-74
2021/08/16 08:50:48;;;;;;;6.13;2.85;;;;;;;;;;5052138;28;20039;-74
2021/08/16 08:53:15;;;;;;;5.82;2.55;;;;;;;;;;5051970;28;20037;-74
2021/08/16 08:55:41;;;;;;;7.97;3.40;;;;;;;;;;5052221;28;20033;-74
2021/08/16 08:58:07;;;;;;;8.30;2.85;;;;;;;;;;5034276;28;20051;-73
2021/08/16 09:00:33;;;;;;;7.65;3.00;;;;;;;;;;5034189;28;20083;-74
2021/08/16 09:03:00;;;;;;;9.10;3.00;;;;;;;;;;5052203;28;20036;-75
2021/08/16 09:05:26;;;;;;;7.75;2.63;;;;;;;;;;5052103;28;20059;-75
2021/08/16 09:07:55;;;;;;;6.63;2.53;;;;;;;;;;5052138;28;20113;-75
2021/08/16 09:10:27;;;;;;;16.98;3.15;;;;;;;;;;5051822;28;20057;-74
2021/08/16 09:12:56;;;;;;;10.88;3.05;;;;;;;;;;5051914;28;20029;-74
2021/08/16 09:15:24;;;;;;;10.68;3.08;;;;;;;;;;5051971;28;20021;-74
2021/08/16 09:17:51;;;;;;;11.90;2.88;;;;;;;;;;5051973;28;20057;-75
2021/08/16 09:20:21;;;;;;;8.40;2.72;;;;;;;;;;5052014;28;20028;-76
2021/08/16 09:23:13;;;;;;;12.23;3.10;;;;;;;;;;5051805;28;20052;-75
2021/08/16 09:25:39;;;;;;;10.60;3.00;;;;;;;;;;5034032;28;20029;-74
2021/08/16 09:28:06;;;;;;;7.47;2.60;;;;;;;;;;5035739;28;20025;-75
2021/08/16 09:30:34;;;;;;;7.10;2.83;;;;;;;;;;5055679;28;20033;-75
2021/08/16 09:33:10;;;;;;;11.13;3.13;;;;;;;;;;5049679;28;20025;-74
2021/08/16 09:35:48;;;;;;;7.30;2.88;;;;;;;;;;5055951;28;20032;-75
2021/08/16 09:38:14;;;;;;;8.60;2.85;;;;;;;;;;5055814;28;20021;-75
2021/08/16 09:40:40;;;;;;;9.73;2.95;;;;;;;;;;5055750;28;20029;-76
2021/08/16 09:43:06;;;;;;;6.00;2.55;;;;;;;;;;5055742;28;20025;-76
2021/08/16 09:45:33;;;;;;;6.18;2.92;;;;;;;;;;5055654;28;20025;-75
2021/08/16 09:48:00;;;;;;;7.15;2.78;;;;;;;;;;5037567;28;20106;-76
2021/08/16 09:50:56;;;;;;;5.30;2.60;;;;;;;;;;5037593;28;20061;-75
2021/08/16 09:53:24;;;;;;;7.10;2.90;;;;;;;;;;5021162;28;20045;-75
2021/08/16 09:55:53;;;;;;;8.20;3.53;;;;;;;;;;5037507;28;20021;-75
2021/08/16 09:58:20;;;;;;;6.63;3.00;;;;;;;;;;5037746;28;20424;-75
2021/08/16 10:00:48;;;;;;;7.35;3.08;;;;;;;;;;5055412;28;20021;-75
2021/08/16 10:03:14;;;;;;;7.80;3.00;;;;;;;;;;5037508;28;20481;-74
2021/08/16 10:05:41;;;;;;;6.25;3.10;;;;;;;;;;5055234;28;20542;-75
2021/08/16 10:08:08;;;;;;;6.38;3.05;;;;;;;;;;5054961;28;20453;-75
2021/08/16 10:10:38;;;;;;;7.82;3.20;;;;;;;;;;5036732;28;20039;-75
2021/08/16 10:13:05;;;;;;;7.88;3.15;;;;;;;;;;5036914;28;20379;-76
2021/08/16 10:15:36;;;;;;;8.82;3.28;;;;;;;;;;5054959;28;20029;-75
2021/08/16 10:18:03;;;;;;;8.50;3.90;;;;;;;;;;5055030;28;20285;-74
2021/08/16 10:20:29;;;;;;;7.95;3.75;;;;;;;;;;5037177;28;20495;-75
2021/08/16 10:22:55;;;;;;;7.35;3.38;;;;;;;;;;5037033;28;20032;-75
2021/08/16 10:25:22;;;;;;;7.47;3.72;;;;;;;;;;5037034;28;20049;-75
2021/08/16 10:27:49;;;;;;;5.75;3.08;;;;;;;;;;5054986;28;20104;-76
2021/08/16 10:30:16;;;;;;;5.32;3.00;;;;;;;;;;5036710;28;20116;-76
2021/08/16 10:32:43;;;;;;;7.13;3.33;;;;;;;;;;5054814;28;20040;-75
2021/08/16 10:35:11;;;;;;;8.95;3.38;;;;;;;;;;5036811;28;20048;-75
2021/08/16 10:37:38;;;;;;;7.57;3.15;;;;;;;;;;5054399;28;20020;-76
2021/08/16 10:40:15;;;;;;;8.00;3.40;;;;;;;;;;5053671;28;20056;-76
2021/08/16 10:42:41;;;;;;;8.80;3.90;;;;;;;;;;5036385;28;20016;-75
2021/08/16 10:45:09;;;;;;;8.07;3.60;;;;;;;;;;5036301;28;20025;-76
2021/08/16 10:47:36;;;;;;;6.05;3.47;;;;;;;;;;5054492;28;20016;-75
2021/08/16 10:50:08;;;;;;;7.15;3.40;;;;;;;;;;5054289;28;20029;-74
2021/08/16 10:52:38;;;;;;;7.80;4.00;;;;;;;;;;5036314;28;20055;-75
2021/08/16 10:55:11;;;;;;;7.13;3.30;;;;;;;;;;5054429;28;20078;-75
2021/08/16 10:57:38;;;;;;;6.90;3.50;;;;;;;;;;5036376;28;20542;-76
2021/08/16 11:00:05;;;;;;;9.52;3.92;;;;;;;;;;5036364;28;20029;-75
2021/08/16 11:02:32;;;;;;;9.70;4.15;;;;;;;;;;5053967;28;20021;-76
2021/08/16 11:04:58;;;;;;;15.05;3.65;;;;;;;;;;5054040;28;20028;-75
2021/08/16 11:07:25;;;;;;;9.13;4.30;;;;;;;;;;5054133;28;20663;-76
2021/08/16 11:09:58;;;;;;;11.10;4.55;;;;;;;;;;5054017;28;20082;-75
2021/08/16 11:12:34;;;;;;;8.25;4.47;;;;;;;;;;5035918;28;20029;-74
2021/08/16 11:15:01;;;;;;;6.88;4.25;;;;;;;;;;5053726;28;20025;-75
2021/08/16 11:17:28;;;;;;;9.02;4.28;;;;;;;;;;5054275;28;20031;-75
2021/08/16 11:19:57;;;;;;;9.85;3.75;;;;;;;;;;5035916;28;20029;-75
2021/08/16 11:22:23;;;;;;;8.43;3.22;;;;;;;;;;5053734;28;20081;-75
2021/08/16 11:24:50;;;;;;;8.93;4.20;;;;;;;;;;5053794;28;20511;-75
2021/08/16 11:27:19;;;;;;;6.60;3.70;;;;;;;;;;5035602;28;20025;-75
2021/08/16 11:29:55;;;;;;;11.30;3.95;;;;;;;;;;5053326;28;20029;-75
2021/08/16 11:32:24;;;;;;;10.70;4.30;;;;;;;;;;5031934;28;20037;-76
2021/08/16 11:34:54;;;;;;;8.85;3.95;;;;;;;;;;5051704;28;20021;-75
2021/08/16 11:37:20;;;;;;;8.82;3.83;;;;;;;;;;5053686;28;20048;-76
2021/08/16 11:39:49;;;;;;;10.25;4.20;;;;;;;;;;5053372;28;20020;-75
2021/08/16 11:42:16;;;;;;;10.93;3.97;;;;;;;;;;5053311;28;20666;-76
2021/08/16 11:44:42;;;;;;;9.90;4.15;;;;;;;;;;5035558;28;20025;-76
2021/08/16 11:47:08;;;;;;;8.15;3.75;;;;;;;;;;5035342;28;20021;-75
2021/08/16 11:49:35;;;;;;;7.30;3.88;;;;;;;;;;5035015;28;20032;-75
2021/08/16 11:52:02;;;;;;;7.78;3.97;;;;;;;;;;5052918;28;20032;-76
2021/08/16 11:54:29;;;;;;;9.80;3.58;;;;;;;;;;5052986;28;20506;-76
2021/08/16 11:56:57;;;;;;;8.02;3.70;;;;;;;;;;5035190;28;20025;-75
2021/08/16 11:59:23;;;;;;;7.07;4.05;;;;;;;;;;5035013;28;20021;-74
2021/08/16 12:01:50;;;;;;;7.90;3.80;;;;;;;;;;5035164;28;20029;-74
2021/08/16 12:04:16;;;;;;;7.18;3.58;;;;;;;;;;5052961;28;20063;-75
2021/08/16 12:06:42;;;;;;;7.57;4.20;;;;;;;;;;5035139;28;20376;-75
2021/08/16 12:09:10;;;;;;;5.97;3.50;;;;;;;;;;5052574;28;20021;-76
2021/08/16 12:11:36;;;;;;;9.27;4.03;;;;;;;;;;5052558;28;20059;-74
2021/08/16 12:14:02;;;;;;;9.02;4.28;;;;;;;;;;5052769;28;20021;-76
2021/08/16 12:16:30;;;;;;;10.20;4.03;;;;;;;;;;5052944;28;20028;-75
2021/08/16 12:18:56;;;;;;;7.10;3.60;;;;;;;;;;5034935;28;20375;-76
2021/08/16 12:21:22;;;;;;;7.72;3.65;;;;;;;;;;5034812;28;20032;-76
2021/08/16 12:23:58;;;;;;;9.20;3.38;;;;;;;;;;5052557;28;20488;-76
2021/08/16 12:26:42;;;;;;;6.43;3.65;;;;;;;;;;5052638;28;20495;-75
2021/08/16 12:29:18;;;;;;;5.68;3.33;;;;;;;;;;5052710;28;20029;-75
2021/08/16 12:31:44;;;;;;;8.90;3.80;;;;;;;;;;5052469;28;20082;-75
2021/08/16 12:34:14;;;;;;;9.00;4.03;;;;;;;;;;5052613;28;20021;-76
2021/08/16 12:36:41;;;;;;;8.27;3.90;;;;;;;;;;5034625;28;20017;-75
2021/08/16 12:39:14;;;;;;;7.50;4.18;;;;;;;;;;5052235;28;20025;-75
2021/08/16 12:41:40;;;;;;;7.60;4.13;;;;;;;;;;5034055;28;20025;-75
2021/08/16 12:44:25;;;;;;;6.30;3.67;;;;;;;;;;5034474;28;20025;-75
2021/08/16 12:46:59;;;;;;;9.50;3.28;;;;;;;;;;5034452;28;20155;-75
2021/08/16 12:49:25;;;;;;;7.35;3.45;;;;;;;;;;5034313;28;20017;-76
2021/08/16 12:51:51;;;;;;;5.90;3.10;;;;;;;;;;5034254;28;20549;-75
2021/08/16 12:54:17;;;;;;;6.57;3.60;;;;;;;;;;5034260;28;20569;-76
2021/08/16 12:56:43;;;;;;;7.05;4.53;;;;;;;;;;5034248;28;20035;-75
2021/08/16 12:59:09;;;;;;;6.00;3.15;;;;;;;;;;5034254;28;20136;-75
2021/08/16 13:01:35;;;;;;;9.88;3.40;;;;;;;;;;5051984;28;20029;-76
2021/08/16 13:04:01;;;;;;;8.43;3.65;;;;;;;;;;5051633;28;20024;-76
2021/08/16 13:06:27;;;;;;;6.57;3.90;;;;;;;;;;5052044;28;20017;-75
2021/08/16 13:08:53;;;;;;;7.95;3.72;;;;;;;;;;5052006;28;20017;-76
2021/08/16 13:11:20;;;;;;;6.15;3.78;;;;;;;;;;5034030;28;20028;-76
2021/08/16 13:13:46;;;;;;;6.38;3.67;;;;;;;;;;5052190;28;20024;-76
2021/08/16 13:16:12;;;;;;;6.88;3.60;;;;;;;;;;5034198;28;20035;-75
2021/08/16 13:18:38;;;;;;;6.28;3.58;;;;;;;;;;5052118;28;20024;-75
2021/08/16 13:21:06;;;;;;;6.28;3.10;;;;;;;;;;5033991;28;20025;-75
2021/08/16 13:23:33;;;;;;;6.43;3.42;;;;;;;;;;5051899;28;20021;-76
2021/08/16 13:25:59;;;;;;;8.85;4.20;;;;;;;;;;5034011;28;20033;-76
2021/08/16 13:28:25;;;;;;;8.70;3.50;;;;;;;;;;5051642;28;20056;-75
2021/08/16 13:30:52;;;;;;;7.97;4.28;;;;;;;;;;5033466;28;20508;-75
2021/08/16 13:33:18;;;;;;;7.80;3.78;;;;;;;;;;5046503;28;20022;-75
2021/08/16 13:35:45;;;;;;;7.13;3.67;;;;;;;;;;5050888;28;20033;-76
2021/08/16 13:38:11;;;;;;;7.07;3.42;;;;;;;;;;5051717;28;20096;-76
2021/08/16 13:40:38;;;;;;;7.20;3.67;;;;;;;;;;5033769;28;20018;-76
2021/08/16 13:43:05;;;;;;;7.13;3.63;;;;;;;;;;5051666;28;20025;-76
2021/08/16 13:45:31;;;;;;;6.85;3.47;;;;;;;;;;5051576;28;20017;-76
2021/08/16 13:47:58;;;;;;;5.45;3.53;;;;;;;;;;5051724;28;20048;-76
2021/08/16 13:50:24;;;;;;;7.63;3.95;;;;;;;;;;5033655;28;20036;-75
2021/08/16 13:52:50;;;;;;;7.20;3.58;;;;;;;;;;5033553;28;20037;-76
2021/08/16 13:55:17;;;;;;;8.13;3.63;;;;;;;;;;5051921;28;20526;-77
2021/08/16 13:57:43;;;;;;;7.90;3.47;;;;;;;;;;5051559;28;20017;-77
2021/08/16 14:00:09;;;;;;;7.57;3.83;;;;;;;;;;5033466;28;20067;-75
2021/08/16 14:02:35;;;;;;;13.25;4.32;;;;;;;;;;5033433;28;20031;-77
2021/08/16 14:05:01;;;;;;;5.10;3.28;;;;;;;;;;5033530;28;20020;-76
2021/08/16 14:07:28;;;;;;;7.85;3.38;;;;;;;;;;5051584;28;20045;-76
2021/08/16 14:09:54;;;;;;;7.53;3.38;;;;;;;;;;5051653;28;20021;-76
2021/08/16 14:12:20;;;;;;;8.82;3.50;;;;;;;;;;5051449;28;20147;-76
2021/08/16 14:14:46;;;;;;;6.13;3.20;;;;;;;;;;5052459;28;20431;-76
2021/08/16 14:17:12;;;;;;;6.55;3.47;;;;;;;;;;5037206;28;20054;-76
2021/08/16 14:19:39;;;;;;;8.15;3.88;;;;;;;;;;5055234;28;20028;-76
2021/08/16 14:22:05;;;;;;;8.20;3.35;;;;;;;;;;5054990;28;20048;-77
2021/08/16 14:24:32;;;;;;;7.72;3.10;;;;;;;;;;5037207;28;20177;-76
2021/08/16 14:26:58;;;;;;;6.28;3.25;;;;;;;;;;5036874;28;20487;-77
2021/08/16 14:29:24;;;;;;;10.40;3.83;;;;;;;;;;5054655;28;20059;-76
2021/08/16 14:31:51;;;;;;;8.32;3.58;;;;;;;;;;5036710;28;20128;-77
2021/08/16 14:34:17;;;;;;;7.00;3.40;;;;;;;;;;5054877;28;20525;-75
2021/08/16 14:36:43;;;;;;;8.07;3.88;;;;;;;;;;5054601;28;20067;-76
2021/08/16 14:39:09;;;;;;;7.72;3.33;;;;;;;;;;5054733;28;20021;-76
2021/08/16 14:41:36;;;;;;;6.75;3.22;;;;;;;;;;5036384;28;20487;-76